createdAt,value
2018-11-01T00:01:32.600Z,4.88
2018-11-01T00:04:00.098Z,4.92
2018-11-01T00:06:27.581Z,4.91
2018-11-01T00:08:55.059Z,4.90
2018-11-01T00:11:22.599Z,4.94
2018-11-01T00:13:50.134Z,5.07
2018-11-01T00:16:17.598Z,5.02
2018-11-01T00:18:45.095Z,4.92
2018-11-01T00:21:12.566Z,4.88
2018-11-01T00:23:40.560Z,4.77
2018-11-01T00:26:08.304Z,4.90
2018-11-01T00:28:35.815Z,4.87
2018-11-01T00:31:03.313Z,4.86
2018-11-01T00:33:30.792Z,4.89
2018-11-01T00:35:58.304Z,4.88
2018-11-01T00:38:25.818Z,4.88
2018-11-01T00:40:53.293Z,4.99
2018-11-01T00:43:20.753Z,5.14
2018-11-01T00:45:48.218Z,5.07
2018-11-01T00:48:15.698Z,5.06
2018-11-01T00:50:43.157Z,4.92
2018-11-01T00:53:10.621Z,5.18
2018-11-01T00:55:38.093Z,5.36
2018-11-01T00:58:05.564Z,5.43
2018-11-01T01:00:33.021Z,5.37
2018-11-01T01:03:00.486Z,5.19
2018-11-01T01:05:27.946Z,5.15
2018-11-01T01:07:55.421Z,5.05
2018-11-01T01:10:22.981Z,5.11
2018-11-01T01:12:50.442Z,5.23
2018-11-01T01:15:17.900Z,5.20
2018-11-01T01:17:45.357Z,5.19
2018-11-01T01:20:13.913Z,5.14
2018-11-01T01:22:42.394Z,4.94
2018-11-01T01:25:11.589Z,4.81
2018-11-01T01:27:39.250Z,4.45
2018-11-01T01:30:06.719Z,4.42
2018-11-01T01:32:34.186Z,4.30
2018-11-01T01:35:01.647Z,4.36
2018-11-01T01:37:29.106Z,4.41
2018-11-01T01:39:56.561Z,4.52
2018-11-01T01:42:28.226Z,4.47
2018-11-01T01:44:55.693Z,4.41
2018-11-01T01:47:23.149Z,4.58
2018-11-01T01:49:50.621Z,4.53
2018-11-01T01:52:18.090Z,4.59
2018-11-01T01:54:45.550Z,4.75
2018-11-01T01:57:13.018Z,4.86
2018-11-01T01:59:40.489Z,4.79
2018-11-01T02:02:07.955Z,4.81
2018-11-01T02:04:35.426Z,4.82
2018-11-01T02:07:02.905Z,4.73
2018-11-01T02:09:30.366Z,4.71
2018-11-01T02:11:57.901Z,4.52
2018-11-01T02:14:25.369Z,4.39
2018-11-01T02:16:52.829Z,4.25
2018-11-01T02:19:20.316Z,4.41
2018-11-01T02:21:47.778Z,4.41
2018-11-01T02:24:15.249Z,4.53
2018-11-01T02:26:42.822Z,4.14
2018-11-01T02:29:10.293Z,3.96
2018-11-01T02:31:37.767Z,3.93
2018-11-01T02:34:05.247Z,4.02
2018-11-01T02:36:32.706Z,4.13
2018-11-01T02:39:00.188Z,4.19
2018-11-01T02:41:27.651Z,4.32
2018-11-01T02:43:55.141Z,4.40
2018-11-01T02:46:22.705Z,4.52
2018-11-01T02:48:50.195Z,4.47
2018-11-01T02:51:17.672Z,4.40
2018-11-01T02:53:45.133Z,4.10
2018-11-01T02:56:12.593Z,4.01
2018-11-01T02:58:40.065Z,4.11
2018-11-01T03:01:08.003Z,4.00
2018-11-01T03:03:36.690Z,4.02
2018-11-01T03:06:04.158Z,4.11
2018-11-01T03:08:31.643Z,4.01
2018-11-01T03:10:59.105Z,4.13
2018-11-01T03:13:26.655Z,4.31
2018-11-01T03:15:54.536Z,4.26
2018-11-01T03:18:22.022Z,4.13
2018-11-01T03:20:49.494Z,4.07
2018-11-01T03:23:16.958Z,4.04
2018-11-01T03:25:44.431Z,3.83
2018-11-01T03:28:11.929Z,3.85
2018-11-01T03:30:39.446Z,3.93
2018-11-01T03:33:07.011Z,4.10
2018-11-01T03:35:34.510Z,4.11
2018-11-01T03:38:02.067Z,4.19
2018-11-01T03:40:29.575Z,4.21
2018-11-01T03:42:57.037Z,4.21
2018-11-01T03:45:24.508Z,3.97
2018-11-01T03:47:51.974Z,3.89
2018-11-01T03:50:19.513Z,3.82
2018-11-01T03:52:47.007Z,3.96
2018-11-01T03:55:14.479Z,3.85
2018-11-01T03:57:42.727Z,3.54
2018-11-01T04:00:10.359Z,3.58
2018-11-01T04:02:37.831Z,3.40
2018-11-01T04:05:05.291Z,3.43
2018-11-01T04:07:32.846Z,3.53
2018-11-01T04:10:00.350Z,3.46
2018-11-01T04:12:27.862Z,3.67
2018-11-01T04:14:55.679Z,3.77
2018-11-01T04:17:22.984Z,3.79
2018-11-01T04:19:50.544Z,3.79
2018-11-01T04:22:18.010Z,3.68
2018-11-01T04:24:45.487Z,3.63
2018-11-01T04:27:12.900Z,3.64
2018-11-01T04:29:40.532Z,4.00
2018-11-01T04:32:08.007Z,3.66
2018-11-01T04:34:35.426Z,3.59
2018-11-01T04:37:02.864Z,3.47
2018-11-01T04:39:30.289Z,3.47
2018-11-01T04:41:57.889Z,3.54
2018-11-01T04:44:25.485Z,3.61
2018-11-01T04:46:52.927Z,3.67
2018-11-01T04:49:20.363Z,3.65
2018-11-01T04:51:47.856Z,3.60
2018-11-01T04:54:15.287Z,3.71
2018-11-01T04:56:42.709Z,3.68
2018-11-01T04:59:10.483Z,3.56
2018-11-01T05:01:37.906Z,3.61
2018-11-01T05:04:05.330Z,3.47
2018-11-01T05:06:33.660Z,3.56
2018-11-01T05:09:01.073Z,3.68
2018-11-01T05:11:28.650Z,3.80
2018-11-01T05:13:56.069Z,3.80
2018-11-01T05:16:23.509Z,4.07
2018-11-01T05:18:50.931Z,4.19
2018-11-01T05:21:18.474Z,4.07
2018-11-01T05:23:45.989Z,4.17
2018-11-01T05:26:13.446Z,4.03
2018-11-01T05:28:40.884Z,4.09
2018-11-01T05:31:08.411Z,4.10
2018-11-01T05:33:35.843Z,4.01
2018-11-01T05:36:03.374Z,3.84
2018-11-01T05:38:30.795Z,3.87
2018-11-01T05:40:58.248Z,3.87
2018-11-01T05:43:25.688Z,3.74
2018-11-01T05:45:53.127Z,3.73
2018-11-01T05:48:20.566Z,3.72
2018-11-01T05:50:48.000Z,3.71
2018-11-01T05:53:15.435Z,3.61
2018-11-01T05:55:42.850Z,3.72
2018-11-01T05:58:10.296Z,3.78
2018-11-01T06:00:37.727Z,3.80
2018-11-01T06:03:05.145Z,3.88
2018-11-01T06:05:32.620Z,3.97
2018-11-01T06:08:02.175Z,3.86
2018-11-01T06:10:29.597Z,3.93
2018-11-01T06:12:57.027Z,3.88
2018-11-01T06:15:24.759Z,4.21
2018-11-01T06:17:52.208Z,4.66
2018-11-01T06:20:19.714Z,4.96
2018-11-01T06:22:47.234Z,5.02
2018-11-01T06:25:14.661Z,5.01
2018-11-01T06:27:42.102Z,5.09
2018-11-01T06:30:09.568Z,5.41
2018-11-01T06:32:37.029Z,5.64
2018-11-01T06:35:06.773Z,5.83
2018-11-01T06:37:34.222Z,5.94
2018-11-01T06:40:01.718Z,6.19
2018-11-01T06:42:29.169Z,6.26
2018-11-01T06:44:56.698Z,6.29
2018-11-01T06:47:24.051Z,6.35
2018-11-01T06:49:51.594Z,6.46
2018-11-01T06:52:19.048Z,6.53
2018-11-01T06:54:46.461Z,6.61
2018-11-01T06:57:13.907Z,6.74
2018-11-01T06:59:41.350Z,6.86
2018-11-01T07:02:08.778Z,6.92
2018-11-01T07:04:36.218Z,6.97
2018-11-01T07:07:03.652Z,7.00
2018-11-01T07:09:31.061Z,7.20
2018-11-01T07:11:58.572Z,7.47
2018-11-01T07:14:26.015Z,7.71
2018-11-01T07:16:53.494Z,8.03
2018-11-01T07:19:20.910Z,8.39
2018-11-01T07:21:48.341Z,8.61
2018-11-01T07:24:16.333Z,8.81
2018-11-01T07:26:43.834Z,9.04
2018-11-01T07:29:11.354Z,9.33
2018-11-01T07:31:38.801Z,9.59
2018-11-01T07:34:06.258Z,9.79
2018-11-01T07:36:33.873Z,9.88
2018-11-01T07:39:01.307Z,9.93
2018-11-01T07:41:28.737Z,9.97
2018-11-01T07:43:56.165Z,10.15
2018-11-01T07:46:23.597Z,10.33
2018-11-01T07:48:51.026Z,10.58
2018-11-01T07:51:18.506Z,10.82
2018-11-01T07:53:45.947Z,11.04
2018-11-01T07:56:13.405Z,11.26
2018-11-01T07:58:40.830Z,11.47
2018-11-01T08:01:08.263Z,11.72
2018-11-01T08:03:35.702Z,11.95
2018-11-01T08:06:03.287Z,11.97
2018-11-01T08:08:30.578Z,12.03
2018-11-01T08:10:58.076Z,12.25
2018-11-01T08:13:25.516Z,12.26
2018-11-01T08:15:52.982Z,12.25
2018-11-01T08:18:20.448Z,12.28
2018-11-01T08:20:47.959Z,12.43
2018-11-01T08:23:15.315Z,12.57
2018-11-01T08:25:42.807Z,12.69
2018-11-01T08:28:10.259Z,12.80
2018-11-01T08:30:37.711Z,12.78
2018-11-01T08:33:05.227Z,12.66
2018-11-01T08:35:32.717Z,12.66
2018-11-01T08:38:00.168Z,12.71
2018-11-01T08:40:27.602Z,12.79
2018-11-01T08:42:55.044Z,12.77
2018-11-01T08:45:22.483Z,12.95
2018-11-01T08:47:49.995Z,12.96
2018-11-01T08:50:17.438Z,12.92
2018-11-01T08:52:45.267Z,12.89
2018-11-01T08:55:13.191Z,12.85
2018-11-01T08:57:41.775Z,12.80
2018-11-01T09:00:09.987Z,12.81
2018-11-01T09:02:37.652Z,12.93
2018-11-01T09:05:05.084Z,13.15
2018-11-01T09:07:32.611Z,13.31
2018-11-01T09:10:00.016Z,13.42
2018-11-01T09:12:27.439Z,13.48
2018-11-01T09:14:54.881Z,13.44
2018-11-01T09:17:22.367Z,13.64
2018-11-01T09:19:49.811Z,13.86
2018-11-01T09:22:17.248Z,14.03
2018-11-01T09:24:44.706Z,14.15
2018-11-01T09:27:12.216Z,14.19
2018-11-01T09:29:39.599Z,14.26
2018-11-01T09:32:07.066Z,14.45
2018-11-01T09:34:34.500Z,14.39
2018-11-01T09:37:01.941Z,14.12
2018-11-01T09:39:29.379Z,13.97
2018-11-01T09:41:56.815Z,14.08
2018-11-01T09:44:24.274Z,14.20
2018-11-01T09:46:52.085Z,14.35
2018-11-01T09:49:19.116Z,14.40
2018-11-01T09:51:46.546Z,14.54
2018-11-01T09:54:13.973Z,14.47
2018-11-01T09:56:41.455Z,14.66
2018-11-01T09:59:09.140Z,14.67
2018-11-01T10:01:36.574Z,14.67
2018-11-01T10:04:04.007Z,14.39
2018-11-01T10:06:31.433Z,14.38
2018-11-01T10:08:58.885Z,14.32
2018-11-01T10:11:26.309Z,14.38
2018-11-01T10:13:53.737Z,14.47
2018-11-01T10:16:21.288Z,14.47
2018-11-01T10:18:48.606Z,14.36
2018-11-01T10:21:16.048Z,14.29
2018-11-01T10:23:43.464Z,14.32
2018-11-01T10:26:10.898Z,14.40
2018-11-01T10:28:38.333Z,14.49
2018-11-01T10:31:05.745Z,14.38
2018-11-01T10:33:33.192Z,14.31
2018-11-01T10:36:00.810Z,14.30
2018-11-01T10:38:28.258Z,14.30
2018-11-01T10:40:55.717Z,14.40
2018-11-01T10:43:23.186Z,14.47
2018-11-01T10:45:50.609Z,14.49
2018-11-01T10:48:18.048Z,14.66
2018-11-01T10:50:45.503Z,14.60
2018-11-01T10:53:12.939Z,14.61
2018-11-01T10:55:40.362Z,14.74
2018-11-01T10:58:07.822Z,14.75
2018-11-01T11:00:41.006Z,14.68
2018-11-01T11:03:08.294Z,14.76
2018-11-01T11:05:35.726Z,14.79
2018-11-01T11:08:03.142Z,14.76
2018-11-01T11:10:30.561Z,14.79
2018-11-01T11:12:57.994Z,14.69
2018-11-01T11:15:25.422Z,14.69
2018-11-01T11:17:52.858Z,14.76
2018-11-01T11:20:20.367Z,14.58
2018-11-01T11:22:47.722Z,14.69
2018-11-01T11:25:15.178Z,14.75
2018-11-01T11:27:42.617Z,14.76
2018-11-01T11:30:10.465Z,14.61
2018-11-01T11:32:37.933Z,14.52
2018-11-01T11:35:05.366Z,14.54
2018-11-01T11:37:32.813Z,14.57
2018-11-01T11:40:00.270Z,14.58
2018-11-01T11:42:27.714Z,14.61
2018-11-01T11:44:55.199Z,14.55
2018-11-01T11:47:22.622Z,14.47
2018-11-01T11:49:50.045Z,14.51
2018-11-01T11:52:17.486Z,14.50
2018-11-01T11:54:44.921Z,14.43
2018-11-01T11:57:12.426Z,14.39
2018-11-01T11:59:39.906Z,14.37
2018-11-01T12:02:07.398Z,14.36
2018-11-01T12:04:34.802Z,14.32
2018-11-01T12:07:02.242Z,14.22
2018-11-01T12:09:29.695Z,14.25
2018-11-01T12:11:57.115Z,14.25
2018-11-01T12:14:24.569Z,14.24
2018-11-01T12:16:52.001Z,14.25
2018-11-01T12:19:19.451Z,14.25
2018-11-01T12:21:46.912Z,14.18
2018-11-01T12:24:14.342Z,14.15
2018-11-01T12:26:41.787Z,14.18
2018-11-01T12:29:09.467Z,14.17
2018-11-01T12:31:36.906Z,14.13
2018-11-01T12:34:04.330Z,14.14
2018-11-01T12:36:31.759Z,14.14
2018-11-01T12:38:59.274Z,14.08
2018-11-01T12:41:26.775Z,14.10
2018-11-01T12:43:54.191Z,14.05
2018-11-01T12:46:21.636Z,14.09
2018-11-01T12:48:49.162Z,14.07
2018-11-01T12:51:16.587Z,14.04
2018-11-01T12:53:44.055Z,14.04
2018-11-01T12:56:11.860Z,14.01
2018-11-01T12:58:39.291Z,13.97
2018-11-01T13:01:07.044Z,14.00
2018-11-01T13:03:34.492Z,14.02
2018-11-01T13:06:01.914Z,13.95
2018-11-01T13:08:29.334Z,13.93
2018-11-01T13:10:56.771Z,13.92
2018-11-01T13:13:24.257Z,13.88
2018-11-01T13:15:51.724Z,13.89
2018-11-01T13:18:19.201Z,13.93
2018-11-01T13:20:46.605Z,13.96
2018-11-01T13:23:14.107Z,14.00
2018-11-01T13:25:41.534Z,14.03
2018-11-01T13:28:09.033Z,14.04
2018-11-01T13:30:36.478Z,14.00
2018-11-01T13:33:03.910Z,13.96
2018-11-01T13:35:31.413Z,13.92
2018-11-01T13:37:58.769Z,14.00
2018-11-01T13:40:26.696Z,13.93
2018-11-01T13:42:53.674Z,13.98
2018-11-01T13:45:21.117Z,13.92
2018-11-01T13:47:48.609Z,13.91
2018-11-01T13:50:15.996Z,13.86
2018-11-01T13:52:43.438Z,13.87
2018-11-01T13:55:12.106Z,13.88
2018-11-01T13:57:39.527Z,13.86
2018-11-01T14:00:07.165Z,13.79
2018-11-01T14:02:37.498Z,13.89
2018-11-01T14:05:04.927Z,13.85
2018-11-01T14:07:32.363Z,13.90
2018-11-01T14:09:59.834Z,13.90
2018-11-01T14:12:27.257Z,13.89
2018-11-01T14:14:55.020Z,13.92
2018-11-01T14:17:22.106Z,13.88
2018-11-01T14:19:49.526Z,13.70
2018-11-01T14:22:17.090Z,13.60
2018-11-01T14:24:44.547Z,13.53
2018-11-01T14:27:12.085Z,13.70
2018-11-01T14:29:39.482Z,13.62
2018-11-01T14:32:06.993Z,13.56
2018-11-01T14:34:34.422Z,13.53
2018-11-01T14:37:02.134Z,13.45
2018-11-01T14:39:29.573Z,13.47
2018-11-01T14:41:57.002Z,13.31
2018-11-01T14:44:24.473Z,13.17
2018-11-01T14:46:51.886Z,13.05
2018-11-01T14:49:19.362Z,13.00
2018-11-01T14:51:47.824Z,12.98
2018-11-01T14:54:15.461Z,13.07
2018-11-01T14:56:43.881Z,13.21
2018-11-01T14:59:11.280Z,13.12
2018-11-01T15:01:37.578Z,13.21
2018-11-01T15:04:05.002Z,13.04
2018-11-01T15:06:32.558Z,12.92
2018-11-01T15:08:59.869Z,12.79
2018-11-01T15:11:27.300Z,12.76
2018-11-01T15:13:54.747Z,12.70
2018-11-01T15:16:22.202Z,12.68
2018-11-01T15:18:49.957Z,12.90
2018-11-01T15:21:17.327Z,12.98
2018-11-01T15:23:44.803Z,12.92
2018-11-01T15:26:12.385Z,13.04
2018-11-01T15:28:39.736Z,13.05
2018-11-01T15:31:07.284Z,13.13
2018-11-01T15:33:35.920Z,13.18
2018-11-01T15:36:03.246Z,13.20
2018-11-01T15:38:30.691Z,13.34
2018-11-01T15:41:00.495Z,13.48
2018-11-01T15:43:27.966Z,13.47
2018-11-01T15:45:55.422Z,13.48
2018-11-01T15:48:22.890Z,13.40
2018-11-01T15:50:50.323Z,13.42
2018-11-01T15:53:17.874Z,13.50
2018-11-01T15:55:45.391Z,13.47
2018-11-01T15:58:12.830Z,13.55
2018-11-01T16:00:40.259Z,13.49
2018-11-01T16:03:07.766Z,13.45
2018-11-01T16:05:35.253Z,13.36
2018-11-01T16:08:02.711Z,13.33
2018-11-01T16:10:30.137Z,13.28
2018-11-01T16:12:57.568Z,13.36
2018-11-01T16:15:25.007Z,13.34
2018-11-01T16:17:52.426Z,13.19
2018-11-01T16:20:19.870Z,13.31
2018-11-01T16:22:47.276Z,13.19
2018-11-01T16:25:14.783Z,13.13
2018-11-01T16:27:42.200Z,13.14
2018-11-01T16:30:09.691Z,13.18
2018-11-01T16:32:37.187Z,13.22
2018-11-01T16:35:04.779Z,13.20
2018-11-01T16:37:32.207Z,13.04
2018-11-01T16:39:59.733Z,12.99
2018-11-01T16:42:27.289Z,13.06
2018-11-01T16:44:54.652Z,12.94
2018-11-01T16:47:22.058Z,12.89
2018-11-01T16:49:49.502Z,12.85
2018-11-01T16:52:16.942Z,12.85
2018-11-01T16:54:44.370Z,12.83
2018-11-01T16:57:11.801Z,12.84
2018-11-01T16:59:39.244Z,12.90
2018-11-01T17:02:06.659Z,12.94
2018-11-01T17:04:34.245Z,13.05
2018-11-01T17:07:01.675Z,13.06
2018-11-01T17:09:29.134Z,13.04
2018-11-01T17:11:56.566Z,13.04
2018-11-01T17:14:24.002Z,13.08
2018-11-01T17:16:51.441Z,13.22
2018-11-01T17:19:18.865Z,13.32
2018-11-01T17:21:46.331Z,13.33
2018-11-01T17:24:13.771Z,13.28
2018-11-01T17:26:41.200Z,13.27
2018-11-01T17:29:08.622Z,13.34
2018-11-01T17:31:36.122Z,13.38
2018-11-01T17:34:03.581Z,13.43
2018-11-01T17:36:30.995Z,13.35
2018-11-01T17:38:58.431Z,13.31
2018-11-01T17:41:25.845Z,13.29
2018-11-01T17:43:53.344Z,13.31
2018-11-01T17:46:20.769Z,13.30
2018-11-01T17:48:48.138Z,13.34
2018-11-01T17:51:15.718Z,13.25
2018-11-01T17:53:43.053Z,13.28
2018-11-01T17:56:10.490Z,13.37
2018-11-01T17:58:37.909Z,13.34
2018-11-01T18:01:05.346Z,13.40
2018-11-01T18:03:32.781Z,13.37
2018-11-01T18:06:00.210Z,13.30
2018-11-01T18:08:27.854Z,13.31
2018-11-01T18:10:55.070Z,13.29
2018-11-01T18:13:22.499Z,13.30
2018-11-01T18:15:49.929Z,13.35
2018-11-01T18:18:17.363Z,13.21
2018-11-01T18:20:44.789Z,13.20
2018-11-01T18:23:12.358Z,13.14
2018-11-01T18:25:45.185Z,13.10
2018-11-01T18:28:12.575Z,13.20
2018-11-01T18:30:40.025Z,13.11
2018-11-01T18:33:07.680Z,13.16
2018-11-01T18:35:34.902Z,13.16
2018-11-01T18:38:02.336Z,13.18
2018-11-01T18:40:29.778Z,13.09
2018-11-01T18:42:57.215Z,13.05
2018-11-01T18:45:24.645Z,12.94
2018-11-01T18:47:52.072Z,12.98
2018-11-01T18:50:19.531Z,12.99
2018-11-01T18:52:46.974Z,12.95
2018-11-01T18:55:14.401Z,12.93
2018-11-01T18:57:41.946Z,12.90
2018-11-01T19:00:09.631Z,12.95
2018-11-01T19:02:37.060Z,13.04
2018-11-01T19:05:04.492Z,12.86
2018-11-01T19:07:31.945Z,12.80
2018-11-01T19:09:59.386Z,12.70
2018-11-01T19:12:26.818Z,12.62
2018-11-01T19:14:54.359Z,12.53
2018-11-01T19:17:21.761Z,12.56
2018-11-01T19:19:49.189Z,12.55
2018-11-01T19:22:16.625Z,12.39
2018-11-01T19:24:44.074Z,12.47
2018-11-01T19:27:11.746Z,12.50
2018-11-01T19:29:38.956Z,12.42
2018-11-01T19:32:06.385Z,12.44
2018-11-01T19:34:33.952Z,12.36
2018-11-01T19:37:01.242Z,12.44
2018-11-01T19:39:28.670Z,12.43
2018-11-01T19:41:56.091Z,12.44
2018-11-01T19:44:23.553Z,12.44
2018-11-01T19:46:51.026Z,12.41
2018-11-01T19:49:18.391Z,12.38
2018-11-01T19:51:45.820Z,12.29
2018-11-01T19:54:13.307Z,12.06
2018-11-01T19:56:40.694Z,12.03
2018-11-01T19:59:08.154Z,11.85
2018-11-01T20:01:35.611Z,11.55
2018-11-01T20:04:03.041Z,11.22
2018-11-01T20:06:30.482Z,11.12
2018-11-01T20:08:58.013Z,10.86
2018-11-01T20:11:25.387Z,10.95
2018-11-01T20:13:52.843Z,10.89
2018-11-01T20:16:20.274Z,10.86
2018-11-01T20:18:47.849Z,10.75
2018-11-01T20:21:15.134Z,10.65
2018-11-01T20:23:42.648Z,10.44
2018-11-01T20:26:10.066Z,10.37
2018-11-01T20:28:37.584Z,10.23
2018-11-01T20:31:05.053Z,10.21
2018-11-01T20:33:32.525Z,10.39
2018-11-01T20:35:59.926Z,10.09
2018-11-01T20:38:27.441Z,10.08
2018-11-01T20:40:54.913Z,10.06
2018-11-01T20:43:22.375Z,9.61
2018-11-01T20:45:49.789Z,9.57
2018-11-01T20:48:17.217Z,9.75
2018-11-01T20:50:44.647Z,9.18
2018-11-01T20:53:12.083Z,9.33
2018-11-01T20:55:39.514Z,9.42
2018-11-01T20:58:06.951Z,9.53
2018-11-01T21:00:34.382Z,9.23
2018-11-01T21:03:01.818Z,8.99
2018-11-01T21:05:29.250Z,9.11
2018-11-01T21:07:56.673Z,9.24
2018-11-01T21:10:24.118Z,9.18
2018-11-01T21:12:51.551Z,9.16
2018-11-01T21:15:18.993Z,8.96
2018-11-01T21:17:46.434Z,8.77
2018-11-01T21:20:13.863Z,8.90
2018-11-01T21:22:41.421Z,8.86
2018-11-01T21:25:09.991Z,8.70
2018-11-01T21:27:37.456Z,8.68
2018-11-01T21:30:04.925Z,8.70
2018-11-01T21:32:32.371Z,8.61
2018-11-01T21:34:59.984Z,8.64
2018-11-01T21:37:27.351Z,8.55
2018-11-01T21:39:54.780Z,8.41
2018-11-01T21:42:22.217Z,8.51
2018-11-01T21:44:49.746Z,8.39
2018-11-01T21:47:17.202Z,8.39
2018-11-01T21:49:44.649Z,8.51
2018-11-01T21:52:12.094Z,8.18
2018-11-01T21:54:39.558Z,8.19
2018-11-01T21:57:07.001Z,8.22
2018-11-01T21:59:34.446Z,8.19
2018-11-01T22:02:01.875Z,8.22
2018-11-01T22:04:29.319Z,8.24
2018-11-01T22:06:56.774Z,8.10
2018-11-01T22:09:24.229Z,8.13
2018-11-01T22:11:51.649Z,8.19
2018-11-01T22:14:19.082Z,8.10
2018-11-01T22:16:46.505Z,8.07
2018-11-01T22:19:13.945Z,8.14
2018-11-01T22:21:41.372Z,8.02
2018-11-01T22:24:08.797Z,8.09
2018-11-01T22:26:36.252Z,8.20
2018-11-01T22:29:03.705Z,7.76
2018-11-01T22:31:31.151Z,7.78
2018-11-01T22:33:58.587Z,7.89
2018-11-01T22:36:26.026Z,7.80
2018-11-01T22:38:53.518Z,7.80
2018-11-01T22:41:20.878Z,7.37
2018-11-01T22:43:48.349Z,7.53
2018-11-01T22:46:15.960Z,7.57
2018-11-01T22:48:43.721Z,7.27
2018-11-01T22:51:11.133Z,7.83
2018-11-01T22:53:38.555Z,7.65
2018-11-01T22:56:05.981Z,7.41
2018-11-01T22:58:33.420Z,7.55
2018-11-01T23:01:00.856Z,7.45
2018-11-01T23:03:28.427Z,7.26
2018-11-01T23:05:55.862Z,7.54
2018-11-01T23:08:23.463Z,7.49
2018-11-01T23:10:51.031Z,7.33
2018-11-01T23:13:18.467Z,7.38
2018-11-01T23:15:45.913Z,7.61
2018-11-01T23:18:13.727Z,7.26
2018-11-01T23:20:41.158Z,7.19
2018-11-01T23:23:08.601Z,7.38
2018-11-01T23:25:36.060Z,7.42
2018-11-01T23:28:03.495Z,7.16
2018-11-01T23:30:30.936Z,7.25
2018-11-01T23:32:58.422Z,7.29
2018-11-01T23:35:25.798Z,7.10
2018-11-01T23:37:58.606Z,7.22
2018-11-01T23:40:31.393Z,7.03
2018-11-01T23:43:04.074Z,7.21
2018-11-01T23:45:36.863Z,7.11
2018-11-01T23:48:03.562Z,7.17
2018-11-01T23:50:47.507Z,7.20
2018-11-01T23:53:17.871Z,7.04
2018-11-01T23:55:45.310Z,6.85
2018-11-01T23:58:12.774Z,6.97
